Please disable your adblock and script blockers to view this page.

ICAO: RCTP Country: Taiwan, Province Of China
Latitude: 25.077731 Longitude: 121.232822
Total Arrivals: 7 Total Departures: 7
Latest Arrival:  SDA747-2 (VHHH-RCTP) GeoffreyDe Kergariou Latest Departure:  SDAUN1 (RCTP-KSFO) GeoffreyDe Kergariou
Available Weather Information

METAR FOR RCTP (Issued: Tue, October 17th 2017 1:00 PM UTC):
RCTP 171300Z 04022KT 9000 -RA FEW006 BKN009 BKN015 25/24 Q1013 WS ALL RWY NOSIG RMK A2994 RA AMT 0.2MM

Runways

Runway ID Mag Var Hdg Length Elevation Surface ILS Freq ILS Id ILS Slope
5 -3 52° 12020 ft 107 ft Concrete 111.1 ITIA 3
6 -3 52° 11001 ft 107 ft Concrete 110.7 ICKS 3
23 -3 232° 12020 ft 107 ft Concrete 109.3 ITYA 3
24 -3 232° 11001 ft 107 ft Concrete 111.9 ICJN 3

Taiwan Taoyuan International Airport




SkyDream Airlines

Start your flying career at SkyDream Airlines today and join a nice and friendly community!

Have fun flying in France and all over the World!

Copyright © 2017 - SkyDream Airlines

AIRAC cycle : 1711 Version : 1 Valid (from/to): 12/OCT/2017 - 08/NOV/2017

Your IP is 162.158.62.43

This page was generated in 0.0006 seconds

Website design by FSX30HD CMS by phpVMS